Time;durP1;ratioP1;P1;durP2;ratioP2;P2;SDS_P1;SDS_P2;PMS_P1;PMS_P2;Temp;Humidity;BMP_temperature;BMP_pressure;BME280_temperature;BME280_humidity;BME280_pressure;Samples;Min_cycle;Max_cycle;Signal;HPM_P1;HPM_P2
2020/12/24 00:02:19;;;;;;;1.60;1.20;;;18.70;61.60;;;;;;5043983;28;20185;-61
2020/12/24 00:04:45;;;;;;;1.67;1.10;;;18.60;61.50;;;;;;5044472;28;20658;-61
2020/12/24 00:07:10;;;;;;;1.65;1.33;;;18.60;61.50;;;;;;5044037;28;20222;-62
2020/12/24 00:09:36;;;;;;;1.58;1.20;;;18.60;61.50;;;;;;5044459;28;20179;-62
2020/12/24 00:12:01;;;;;;;1.90;1.10;;;18.60;61.40;;;;;;5044065;28;20175;-62
2020/12/24 00:14:27;;;;;;;1.00;0.90;;;18.60;61.40;;;;;;5044336;28;20275;-63
2020/12/24 00:16:53;;;;;;;2.97;1.42;;;18.60;61.50;;;;;;5044148;28;20279;-61
2020/12/24 00:19:18;;;;;;;1.63;1.20;;;18.60;61.50;;;;;;5044191;28;20177;-62
2020/12/24 00:21:44;;;;;;;1.45;1.00;;;18.60;61.40;;;;;;5043967;28;20167;-63
2020/12/24 00:24:09;;;;;;;2.22;1.23;;;18.60;61.50;;;;;;5043895;28;20185;-62
2020/12/24 00:26:35;;;;;;;1.52;1.10;;;18.50;61.40;;;;;;5043929;28;20246;-62
2020/12/24 00:29:07;;;;;;;3.42;1.30;;;18.50;61.40;;;;;;5043823;28;20199;-61
2020/12/24 00:31:33;;;;;;;1.95;1.00;;;18.50;61.40;;;;;;5043662;28;20186;-62
2020/12/24 00:34:00;;;;;;;1.92;0.95;;;18.50;61.40;;;;;;5043927;28;20175;-62
2020/12/24 00:36:26;;;;;;;1.63;1.00;;;18.50;61.40;;;;;;5043828;28;20232;-63
2020/12/24 00:38:52;;;;;;;1.58;1.02;;;18.50;61.40;;;;;;5043871;28;20647;-62
2020/12/24 00:41:19;;;;;;;1.98;1.00;;;18.50;61.40;;;;;;5043772;28;20268;-62
2020/12/24 00:43:44;;;;;;;1.90;1.25;;;18.50;61.40;;;;;;5043909;28;20304;-63
2020/12/24 00:46:10;;;;;;;2.35;1.42;;;18.50;61.40;;;;;;5043870;28;21056;-62
2020/12/24 00:48:35;;;;;;;3.13;1.30;;;18.40;61.40;;;;;;5043714;28;20183;-62
2020/12/24 00:51:01;;;;;;;1.58;1.00;;;18.40;61.30;;;;;;5044082;28;20175;-62
2020/12/24 00:53:26;;;;;;;1.50;1.05;;;18.50;61.40;;;;;;5044063;28;20175;-62
2020/12/24 00:55:52;;;;;;;1.50;0.90;;;18.40;61.30;;;;;;5043754;28;20179;-61
2020/12/24 00:58:17;;;;;;;2.08;1.08;;;18.40;61.30;;;;;;5043852;28;20258;-62
2020/12/24 01:00:43;;;;;;;1.23;1.02;;;18.40;61.30;;;;;;5043925;28;20202;-61
2020/12/24 01:03:08;;;;;;;3.20;1.52;;;18.40;61.30;;;;;;5043729;28;20533;-62
2020/12/24 01:05:34;;;;;;;2.00;1.13;;;18.40;61.30;;;;;;5043828;28;20534;-61
2020/12/24 01:08:00;;;;;;;0.80;0.80;;;18.40;61.30;;;;;;5043488;28;20171;-61
2020/12/24 01:10:26;;;;;;;2.25;1.00;;;18.40;61.30;;;;;;5025681;28;20702;-62
2020/12/24 01:12:51;;;;;;;1.60;0.90;;;18.30;62.10;;;;;;5043650;28;20175;-63
2020/12/24 01:15:17;;;;;;;1.88;1.30;;;18.30;61.20;;;;;;5043812;28;20238;-61
2020/12/24 01:17:42;;;;;;;2.15;1.17;;;18.30;61.20;;;;;;5043450;28;20179;-62
2020/12/24 01:20:08;;;;;;;2.00;1.20;;;18.30;61.20;;;;;;5043625;28;20261;-62
2020/12/24 01:22:34;;;;;;;1.65;1.05;;;18.30;61.20;;;;;;5043767;28;20672;-62
2020/12/24 01:25:00;;;;;;;1.73;1.20;;;18.30;61.10;;;;;;5043725;28;20246;-62
2020/12/24 01:27:25;;;;;;;1.77;1.10;;;18.30;61.10;;;;;;5043453;28;20305;-62
2020/12/24 01:29:51;;;;;;;1.85;1.08;;;18.30;61.20;;;;;;5043489;28;20532;-62
2020/12/24 01:32:17;;;;;;;1.45;1.00;;;18.30;61.10;;;;;;5044064;28;20178;-61
2020/12/24 01:34:43;;;;;;;2.05;1.15;;;18.30;61.10;;;;;;5047462;28;20198;-61
2020/12/24 01:37:08;;;;;;;2.10;0.95;;;18.30;61.10;;;;;;5047312;28;20640;-62
2020/12/24 01:39:34;;;;;;;1.13;0.98;;;18.20;61.10;;;;;;5047455;28;20179;-62
2020/12/24 01:41:59;;;;;;;1.80;1.23;;;18.20;61.00;;;;;;5047479;28;20250;-63
2020/12/24 01:44:25;;;;;;;2.45;1.08;;;18.20;60.90;;;;;;5046932;28;20207;-63
2020/12/24 01:46:50;;;;;;;1.48;1.17;;;18.20;60.90;;;;;;5029323;28;20215;-64
2020/12/24 01:49:17;;;;;;;1.83;1.00;;;18.20;60.90;;;;;;5047233;28;20237;-63
2020/12/24 01:51:49;;;;;;;1.63;1.13;;;18.20;60.80;;;;;;5047265;28;20258;-63
2020/12/24 01:54:15;;;;;;;1.65;1.02;;;18.20;60.90;;;;;;5029518;28;20194;-63
2020/12/24 01:56:40;;;;;;;2.33;1.00;;;18.20;60.80;;;;;;5012582;28;20637;-62
2020/12/24 01:59:06;;;;;;;1.40;0.98;;;18.20;60.90;;;;;;5046791;28;20167;-62
2020/12/24 02:01:31;;;;;;;1.48;1.00;;;18.20;60.80;;;;;;5029023;28;20210;-62
2020/12/24 02:03:57;;;;;;;1.00;0.68;;;18.20;60.80;;;;;;5046650;28;20176;-62
2020/12/24 02:06:22;;;;;;;0.95;0.73;;;18.20;60.80;;;;;;5046384;28;20199;-62
2020/12/24 02:08:48;;;;;;;1.27;1.17;;;18.20;60.80;;;;;;5046275;28;20179;-62
2020/12/24 02:11:13;;;;;;;1.27;1.17;;;18.10;60.80;;;;;;5046697;28;20202;-62
2020/12/24 02:13:39;;;;;;;2.03;0.90;;;18.10;60.80;;;;;;5046956;28;21027;-62
2020/12/24 02:16:05;;;;;;;1.63;1.10;;;18.10;60.60;;;;;;5046562;28;20599;-63
2020/12/24 02:18:30;;;;;;;1.55;1.13;;;18.10;60.60;;;;;;5046030;28;20282;-64
2020/12/24 02:20:56;;;;;;;1.08;0.98;;;18.10;60.60;;;;;;5046494;28;20645;-63
2020/12/24 02:23:21;;;;;;;2.25;0.93;;;18.10;60.60;;;;;;5046036;28;20172;-63
2020/12/24 02:25:47;;;;;;;2.13;1.20;;;18.10;60.60;;;;;;5046028;28;21176;-62
2020/12/24 02:28:12;;;;;;;2.22;1.05;;;18.10;60.60;;;;;;5046087;28;20195;-62
2020/12/24 02:30:38;;;;;;;3.33;1.00;;;18.10;60.50;;;;;;5046263;28;20171;-61
2020/12/24 02:33:07;;;;;;;1.02;0.80;;;18.10;60.60;;;;;;5046130;28;20179;-61
2020/12/24 02:35:33;;;;;;;1.73;0.80;;;18.10;60.50;;;;;;5046141;28;20172;-61
2020/12/24 02:37:59;;;;;;;1.45;0.85;;;18.10;60.50;;;;;;5045862;28;20179;-62
2020/12/24 02:40:24;;;;;;;1.17;0.90;;;18.10;60.50;;;;;;5045686;28;20178;-62
2020/12/24 02:42:50;;;;;;;2.22;0.80;;;18.10;60.50;;;;;;5045635;28;20182;-62
2020/12/24 02:45:15;;;;;;;1.83;0.98;;;18.10;61.30;;;;;;5045732;28;20182;-63
2020/12/24 02:47:41;;;;;;;2.78;1.25;;;18.10;60.50;;;;;;5045595;28;20215;-63
2020/12/24 02:50:08;;;;;;;1.63;1.05;;;18.00;60.40;;;;;;5045857;28;21062;-62
2020/12/24 02:52:33;;;;;;;1.10;0.90;;;18.00;60.40;;;;;;5045800;28;20939;-62
2020/12/24 02:54:59;;;;;;;1.80;0.85;;;18.10;60.40;;;;;;5028161;28;20175;-61
2020/12/24 02:57:25;;;;;;;1.25;0.80;;;18.00;60.40;;;;;;5045487;28;20236;-62
2020/12/24 02:59:50;;;;;;;1.25;0.90;;;18.00;60.40;;;;;;5045451;28;20179;-61
2020/12/24 03:02:16;;;;;;;1.52;1.10;;;18.00;60.40;;;;;;5045266;28;20175;-60
2020/12/24 03:04:41;;;;;;;3.35;1.20;;;18.00;60.40;;;;;;5045224;28;20214;-61
2020/12/24 03:07:07;;;;;;;1.30;1.00;;;18.00;60.40;;;;;;5045321;28;20337;-62
2020/12/24 03:09:33;;;;;;;1.33;0.90;;;18.00;60.30;;;;;;5045130;28;20668;-62
2020/12/24 03:11:58;;;;;;;2.45;1.05;;;18.00;60.30;;;;;;5045543;28;20541;-61
2020/12/24 03:14:24;;;;;;;1.42;0.80;;;18.00;60.30;;;;;;5045392;28;20178;-62
2020/12/24 03:16:49;;;;;;;0.95;0.85;;;18.00;60.30;;;;;;5045222;28;20175;-63
2020/12/24 03:19:15;;;;;;;3.05;0.82;;;18.00;60.40;;;;;;5045374;28;20175;-62
2020/12/24 03:21:40;;;;;;;2.45;0.93;;;18.00;60.30;;;;;;5044582;28;20179;-63
2020/12/24 03:24:06;;;;;;;1.38;1.00;;;18.00;60.30;;;;;;5044825;28;20180;-62
2020/12/24 03:26:32;;;;;;;1.27;0.80;;;18.00;60.30;;;;;;5045187;28;20664;-62
2020/12/24 03:28:57;;;;;;;1.73;0.85;;;17.90;60.20;;;;;;5045095;28;20194;-62
2020/12/24 03:31:24;;;;;;;2.58;1.00;;;17.90;60.20;;;;;;5045079;28;20289;-61
2020/12/24 03:33:49;;;;;;;2.92;1.23;;;17.90;60.20;;;;;;5045130;28;20569;-61
2020/12/24 03:36:15;;;;;;;1.10;1.00;;;17.90;60.20;;;;;;5045145;28;20179;-62
2020/12/24 03:38:41;;;;;;;2.40;1.05;;;17.90;60.30;;;;;;5044736;28;20180;-63
2020/12/24 03:41:06;;;;;;;1.50;1.08;;;17.90;60.10;;;;;;5044812;28;20186;-62
2020/12/24 03:43:32;;;;;;;1.42;0.80;;;17.90;60.20;;;;;;5045038;28;20202;-62
2020/12/24 03:45:57;;;;;;;1.02;0.70;;;17.90;60.20;;;;;;5045225;28;20732;-63
2020/12/24 03:48:23;;;;;;;2.00;0.90;;;17.90;60.30;;;;;;5044728;28;20183;-62
2020/12/24 03:50:48;;;;;;;1.63;0.90;;;17.90;60.10;;;;;;5026967;28;20175;-62
2020/12/24 03:53:14;;;;;;;2.10;0.93;;;17.90;60.10;;;;;;5044803;28;20175;-63
2020/12/24 03:55:39;;;;;;;1.52;1.05;;;17.90;60.10;;;;;;5044023;28;20202;-63
2020/12/24 03:58:05;;;;;;;2.50;1.10;;;17.90;60.10;;;;;;5044831;28;20868;-63
2020/12/24 04:00:31;;;;;;;2.10;1.00;;;17.80;60.00;;;;;;5044454;28;20317;-62
2020/12/24 04:02:56;;;;;;;0.80;0.80;;;17.80;60.10;;;;;;5044265;28;20179;-63
2020/12/24 04:05:22;;;;;;;1.60;1.00;;;17.80;60.00;;;;;;5044324;28;20211;-62
2020/12/24 04:07:50;;;;;;;1.42;0.90;;;17.80;60.00;;;;;;5044217;28;20245;-63
2020/12/24 04:10:19;;;;;;;1.63;0.85;;;17.80;60.00;;;;;;5044312;28;21015;-63
2020/12/24 04:12:44;;;;;;;3.33;1.40;;;17.80;60.00;;;;;;5044464;28;20178;-62
2020/12/24 04:15:10;;;;;;;1.75;1.00;;;17.80;60.00;;;;;;5044467;28;20366;-63
2020/12/24 04:17:36;;;;;;;1.63;1.25;;;17.80;60.10;;;;;;5044314;28;20951;-62
2020/12/24 04:20:02;;;;;;;2.38;1.13;;;17.80;60.10;;;;;;5043666;28;20178;-62
2020/12/24 04:22:27;;;;;;;1.90;0.93;;;17.80;60.00;;;;;;5043969;28;20270;-63
2020/12/24 04:24:53;;;;;;;2.03;1.20;;;17.80;60.00;;;;;;5044042;28;20265;-63
2020/12/24 04:27:18;;;;;;;2.85;1.05;;;17.80;60.10;;;;;;5043831;28;20265;-62
2020/12/24 04:29:44;;;;;;;3.63;1.40;;;17.80;60.10;;;;;;5043864;28;20186;-63
2020/12/24 04:32:10;;;;;;;1.05;0.77;;;17.80;60.10;;;;;;5043427;28;20981;-62
2020/12/24 04:34:36;;;;;;;2.72;1.08;;;17.80;60.10;;;;;;5043808;28;20210;-63
2020/12/24 04:37:01;;;;;;;1.83;1.00;;;17.70;60.10;;;;;;5044105;28;20182;-62
2020/12/24 04:39:27;;;;;;;1.95;1.00;;;17.80;60.10;;;;;;5043601;28;20237;-63
2020/12/24 04:41:53;;;;;;;1.48;0.98;;;17.80;60.20;;;;;;5043749;28;20179;-64
2020/12/24 04:44:18;;;;;;;1.85;1.10;;;17.80;60.20;;;;;;5044182;28;20175;-62
2020/12/24 04:46:44;;;;;;;2.22;1.10;;;17.80;60.10;;;;;;5026325;28;20213;-63
2020/12/24 04:49:10;;;;;;;0.93;0.80;;;17.80;60.20;;;;;;5026299;28;20177;-63
2020/12/24 04:51:36;;;;;;;1.77;1.20;;;17.80;60.20;;;;;;5043728;28;20210;-62
2020/12/24 04:54:01;;;;;;;3.28;1.42;;;17.70;60.10;;;;;;5043680;28;20187;-63
2020/12/24 04:56:27;;;;;;;2.97;1.00;;;17.70;60.10;;;;;;5043935;28;20200;-63
2020/12/24 04:58:53;;;;;;;1.58;0.98;;;17.80;60.10;;;;;;5043679;28;20191;-63
2020/12/24 05:01:19;;;;;;;1.20;0.90;;;17.70;60.00;;;;;;5043735;28;20171;-62
2020/12/24 05:03:45;;;;;;;1.70;0.93;;;17.70;60.10;;;;;;5043653;28;20182;-62
2020/12/24 05:06:16;;;;;;;3.58;1.02;;;17.60;60.00;;;;;;5026769;28;20572;-63
2020/12/24 05:09:02;;;;;;;0.77;0.77;;;17.70;60.00;;;;;;5047725;28;20297;-63
2020/12/24 05:11:28;;;;;;;0.82;0.80;;;17.70;60.00;;;;;;5032086;28;20561;-62
2020/12/24 05:13:54;;;;;;;1.30;0.88;;;17.70;59.90;;;;;;5047702;28;20176;-62
2020/12/24 05:16:19;;;;;;;1.90;0.98;;;17.70;59.90;;;;;;5030021;28;20180;-63
2020/12/24 05:18:45;;;;;;;1.30;0.95;;;17.70;59.90;;;;;;5029529;28;20187;-62
2020/12/24 05:21:11;;;;;;;2.45;1.00;;;17.60;59.90;;;;;;5029911;28;20266;-63
2020/12/24 05:23:36;;;;;;;1.35;0.98;;;17.70;60.00;;;;;;5029707;28;20628;-64
2020/12/24 05:26:18;;;;;;;1.40;0.80;;;17.60;59.90;;;;;;5047102;28;20209;-63
2020/12/24 05:28:43;;;;;;;1.05;0.80;;;17.60;60.00;;;;;;5029325;28;20334;-60
2020/12/24 05:31:09;;;;;;;1.00;0.90;;;17.60;60.00;;;;;;5047271;28;20270;-61
2020/12/24 05:33:34;;;;;;;0.70;0.70;;;17.60;59.90;;;;;;5047023;28;20199;-63
2020/12/24 05:36:20;;;;;;;1.48;1.00;;;17.60;60.00;;;;;;5047471;28;20175;-62
2020/12/24 05:38:45;;;;;;;1.13;0.75;;;17.60;60.10;;;;;;5047428;28;20281;-61
2020/12/24 05:41:27;;;;;;;0.88;0.75;;;17.60;60.00;;;;;;5047115;28;20696;-62
2020/12/24 05:44:03;;;;;;;2.50;0.90;;;17.60;60.00;;;;;;5046867;28;20267;-62
2020/12/24 05:46:38;;;;;;;1.45;0.80;;;17.60;60.00;;;;;;5047351;28;20210;-62
2020/12/24 05:49:09;;;;;;;0.85;0.82;;;17.60;60.00;;;;;;5046775;28;20636;-61
2020/12/24 05:51:34;;;;;;;1.23;0.88;;;17.60;60.00;;;;;;5028673;28;20261;-62
2020/12/24 05:54:00;;;;;;;1.02;0.68;;;17.60;60.00;;;;;;5046811;28;20647;-62
2020/12/24 05:56:25;;;;;;;0.93;0.70;;;17.50;60.00;;;;;;5046794;28;20276;-62
2020/12/24 05:58:51;;;;;;;1.27;0.77;;;17.60;60.00;;;;;;5046754;28;20179;-61
2020/12/24 06:01:17;;;;;;;0.80;0.73;;;17.50;60.00;;;;;;5046822;28;20175;-61
2020/12/24 06:04:00;;;;;;;1.13;0.70;;;17.50;59.90;;;;;;5046768;28;20175;-61
2020/12/24 06:06:41;;;;;;;1.10;0.88;;;17.50;60.00;;;;;;5028708;28;20195;-61
2020/12/24 06:09:10;;;;;;;1.58;0.80;;;17.50;60.00;;;;;;5030251;28;20167;-62
2020/12/24 06:11:46;;;;;;;0.82;0.80;;;17.50;60.00;;;;;;5028724;28;20221;-61
2020/12/24 06:14:36;;;;;;;0.60;0.55;;;17.50;60.10;;;;;;5029635;28;20174;-62
2020/12/24 06:17:02;;;;;;;1.10;0.73;;;17.50;60.00;;;;;;5031245;28;20266;-63
2020/12/24 06:19:28;;;;;;;1.08;0.70;;;17.50;60.00;;;;;;5045620;28;20171;-63
2020/12/24 06:21:53;;;;;;;0.80;0.70;;;17.50;60.00;;;;;;5046213;28;20175;-64
2020/12/24 06:24:19;;;;;;;1.67;0.73;;;17.50;60.00;;;;;;5046709;28;20204;-62
2020/12/24 06:26:46;;;;;;;0.80;0.50;;;17.50;60.90;;;;;;5028498;28;20289;-63
2020/12/24 06:29:12;;;;;;;0.60;0.55;;;17.40;59.90;;;;;;5046295;28;20203;-63
2020/12/24 06:31:40;;;;;;;1.08;0.60;;;17.40;59.90;;;;;;5028375;28;20179;-61
2020/12/24 06:34:22;;;;;;;1.50;0.90;;;17.50;60.10;;;;;;5028258;28;20325;-62
2020/12/24 06:36:48;;;;;;;1.55;0.50;;;17.40;59.90;;;;;;5046089;28;20172;-62
2020/12/24 06:39:13;;;;;;;0.82;0.57;;;17.50;60.10;;;;;;5046257;28;20179;-64
2020/12/24 06:41:41;;;;;;;1.75;1.10;;;17.40;59.90;;;;;;5046069;28;20205;-61
2020/12/24 06:44:08;;;;;;;1.27;0.80;;;17.40;59.90;;;;;;5028627;28;20167;-62
2020/12/24 06:46:56;;;;;;;1.58;0.90;;;17.40;59.90;;;;;;5046175;28;20249;-62
2020/12/24 06:49:31;;;;;;;1.17;0.85;;;17.40;59.90;;;;;;5045771;28;20203;-62
2020/12/24 06:51:56;;;;;;;1.15;0.77;;;17.40;59.90;;;;;;5045758;28;20171;-62
2020/12/24 06:54:26;;;;;;;0.65;0.65;;;17.40;59.90;;;;;;5045661;28;20167;-62
2020/12/24 06:57:23;;;;;;;0.52;0.52;;;17.40;59.90;;;;;;5046008;28;20179;-62
2020/12/24 06:59:49;;;;;;;1.33;0.70;;;17.40;59.90;;;;;;5045718;28;20569;-62
2020/12/24 07:02:24;;;;;;;1.02;0.63;;;17.40;59.90;;;;;;5045627;28;20175;-62
2020/12/24 07:04:50;;;;;;;1.05;0.60;;;17.40;59.90;;;;;;5045452;28;20577;-61
2020/12/24 07:07:38;;;;;;;1.45;0.60;;;17.40;59.90;;;;;;5044974;28;20206;-61
2020/12/24 07:10:03;;;;;;;0.40;0.40;;;17.40;59.90;;;;;;5030618;28;20544;-62
2020/12/24 07:12:32;;;;;;;1.75;0.65;;;17.40;60.60;;;;;;5045732;28;20179;-60
2020/12/24 07:15:18;;;;;;;0.93;0.60;;;17.30;59.80;;;;;;5045136;28;20229;-61
2020/12/24 07:17:44;;;;;;;0.45;0.38;;;17.30;59.70;;;;;;5028175;28;20203;-63
2020/12/24 07:20:10;;;;;;;0.60;0.60;;;17.40;59.80;;;;;;5027809;28;20167;-62
2020/12/24 07:22:35;;;;;;;0.68;0.60;;;17.30;59.80;;;;;;5027811;28;20182;-61
2020/12/24 07:25:01;;;;;;;0.50;0.40;;;17.40;60.70;;;;;;5027899;28;20296;-62
2020/12/24 07:27:26;;;;;;;0.43;0.43;;;17.30;59.80;;;;;;5010551;28;20262;-61
2020/12/24 07:29:52;;;;;;;0.88;0.60;;;17.30;59.80;;;;;;5044778;28;20175;-61
2020/12/24 07:32:19;;;;;;;1.17;0.63;;;17.30;59.80;;;;;;5045081;28;20179;-60
2020/12/24 07:34:45;;;;;;;0.60;0.60;;;17.30;59.80;;;;;;5044893;28;20175;-61
2020/12/24 07:37:10;;;;;;;0.60;0.60;;;17.30;59.70;;;;;;5044827;28;20201;-61
2020/12/24 07:39:36;;;;;;;0.77;0.60;;;17.30;59.70;;;;;;5044827;28;20191;-62
2020/12/24 07:42:02;;;;;;;0.50;0.50;;;17.20;59.60;;;;;;5044411;28;20175;-62
2020/12/24 07:44:28;;;;;;;0.73;0.63;;;17.20;59.60;;;;;;5044583;28;20178;-62
2020/12/24 07:47:00;;;;;;;0.73;0.50;;;17.30;59.70;;;;;;5044624;28;20211;-62
2020/12/24 07:49:26;;;;;;;0.73;0.50;;;17.20;59.60;;;;;;5045200;28;20282;-62
2020/12/24 07:51:55;;;;;;;0.40;0.40;;;17.30;59.70;;;;;;5044546;28;20294;-62
2020/12/24 07:54:24;;;;;;;0.60;0.43;;;17.30;59.70;;;;;;5044563;28;20170;-62
2020/12/24 07:56:49;;;;;;;0.52;0.52;;;17.20;59.60;;;;;;5044543;28;20170;-62
2020/12/24 07:59:16;;;;;;;0.50;0.50;;;17.20;59.70;;;;;;5044831;28;20254;-62
2020/12/24 08:01:41;;;;;;;1.05;0.47;;;17.20;59.70;;;;;;5044547;28;20746;-61
2020/12/24 08:04:07;;;;;;;0.52;0.50;;;17.20;59.80;;;;;;5026678;28;20183;-62
2020/12/24 08:06:33;;;;;;;0.40;0.40;;;17.20;59.70;;;;;;5044170;28;20214;-61
2020/12/24 08:09:11;;;;;;;0.60;0.60;;;17.20;59.70;;;;;;5044528;28;20637;-62
2020/12/24 08:11:37;;;;;;;0.65;0.50;;;17.30;59.70;;;;;;5044168;28;20178;-61
2020/12/24 08:14:03;;;;;;;0.50;0.50;;;17.20;59.60;;;;;;5044043;28;20183;-63
2020/12/24 08:16:28;;;;;;;0.40;0.40;;;17.30;59.70;;;;;;5044422;28;20525;-63
2020/12/24 08:18:58;;;;;;;0.55;0.40;;;17.30;59.70;;;;;;5044082;28;20179;-63
2020/12/24 08:21:32;;;;;;;1.23;0.50;;;17.30;59.70;;;;;;5010007;28;20183;-62
2020/12/24 08:24:00;;;;;;;0.40;0.40;;;17.30;60.40;;;;;;5025975;28;20240;-62
2020/12/24 08:26:25;;;;;;;0.85;0.60;;;17.20;59.60;;;;;;5009828;28;20276;-63
2020/12/24 08:29:02;;;;;;;0.60;0.50;;;17.30;59.70;;;;;;5043854;28;20596;-62
2020/12/24 08:31:29;;;;;;;1.05;0.55;;;17.30;59.70;;;;;;5026907;28;20174;-62
2020/12/24 08:33:54;;;;;;;0.45;0.45;;;17.30;59.70;;;;;;5026698;28;20236;-62
2020/12/24 08:36:26;;;;;;;0.45;0.38;;;17.20;59.60;;;;;;5043952;28;20187;-62
2020/12/24 08:39:02;;;;;;;0.50;0.50;;;17.30;59.70;;;;;;5044449;28;20175;-63
2020/12/24 08:41:28;;;;;;;0.55;0.30;;;17.30;59.70;;;;;;5044940;28;20174;-63
2020/12/24 08:43:54;;;;;;;0.65;0.40;;;17.20;59.70;;;;;;5030221;28;20595;-62
2020/12/24 08:46:23;;;;;;;0.73;0.52;;;17.30;59.70;;;;;;5047827;28;20267;-63
2020/12/24 08:48:49;;;;;;;0.40;0.40;;;17.30;59.70;;;;;;5030254;28;21088;-62
2020/12/24 08:51:15;;;;;;;0.30;0.30;;;17.20;59.60;;;;;;5047925;28;20213;-62
2020/12/24 08:53:41;;;;;;;0.40;0.40;;;17.20;59.60;;;;;;5047878;28;20171;-63
2020/12/24 08:56:13;;;;;;;0.73;0.45;;;17.20;60.00;;;;;;5047859;28;20179;-64
2020/12/24 08:58:48;;;;;;;0.70;0.50;;;17.30;60.00;;;;;;5048140;28;20695;-65
2020/12/24 09:01:15;;;;;;;1.15;0.50;;;17.30;60.20;;;;;;5048066;28;20635;-63
2020/12/24 09:03:40;;;;;;;1.65;0.45;;;17.30;60.50;;;;;;5030290;28;20624;-63
2020/12/24 09:06:12;;;;;;;1.02;0.60;;;17.30;60.10;;;;;;5047718;28;20205;-63
2020/12/24 09:08:39;;;;;;;0.57;0.52;;;17.30;60.20;;;;;;5047945;28;20178;-63
2020/12/24 09:11:05;;;;;;;0.30;0.30;;;17.30;60.00;;;;;;5030017;28;20205;-63
2020/12/24 09:13:30;;;;;;;0.77;0.43;;;17.30;60.50;;;;;;5048021;28;20179;-64
2020/12/24 09:15:56;;;;;;;0.40;0.40;;;17.40;60.20;;;;;;5047875;28;20575;-62
2020/12/24 09:18:21;;;;;;;1.80;0.60;;;17.40;60.10;;;;;;5047860;28;20569;-65
2020/12/24 09:20:47;;;;;;;0.43;0.40;;;17.40;60.50;;;;;;5047652;28;20221;-65
2020/12/24 09:23:14;;;;;;;0.75;0.60;;;17.20;60.20;;;;;;5047798;28;20203;-66
2020/12/24 09:25:43;;;;;;;1.60;0.50;;;17.30;59.70;;;;;;5013695;28;20171;-65
2020/12/24 09:28:22;;;;;;;0.50;0.50;;;17.20;59.90;;;;;;5030491;28;20672;-65
2020/12/24 09:30:48;;;;;;;0.60;0.60;;;17.20;60.00;;;;;;5047154;28;20174;-64
2020/12/24 09:33:13;;;;;;;0.63;0.50;;;17.20;60.20;;;;;;5029568;28;20187;-65
2020/12/24 09:35:39;;;;;;;0.98;0.57;;;17.20;60.40;;;;;;5047241;28;20182;-65
2020/12/24 09:38:04;;;;;;;1.17;0.70;;;17.20;60.50;;;;;;5047260;28;20233;-65
2020/12/24 09:40:30;;;;;;;1.20;0.77;;;17.10;60.30;;;;;;5047161;28;20632;-66
2020/12/24 09:42:55;;;;;;;1.88;0.85;;;17.20;60.10;;;;;;5046923;28;20578;-66
2020/12/24 09:45:23;;;;;;;1.52;0.60;;;17.10;60.10;;;;;;5046880;28;20240;-64
2020/12/24 09:47:49;;;;;;;1.10;1.00;;;17.20;60.20;;;;;;5029414;28;20642;-65
2020/12/24 09:50:14;;;;;;;0.50;0.50;;;17.20;60.10;;;;;;5046909;28;20309;-65
2020/12/24 09:52:40;;;;;;;2.03;0.55;;;17.30;60.00;;;;;;5046233;28;20183;-65
2020/12/24 09:55:05;;;;;;;2.13;0.50;;;17.40;60.00;;;;;;5046387;28;20254;-65
2020/12/24 09:57:32;;;;;;;1.13;0.52;;;17.40;59.90;;;;;;5046307;28;20237;-64
2020/12/24 09:59:57;;;;;;;0.50;0.50;;;17.40;60.00;;;;;;5046659;28;20175;-65
2020/12/24 10:02:23;;;;;;;0.75;0.50;;;17.40;60.00;;;;;;5046722;28;20538;-63
2020/12/24 10:04:49;;;;;;;0.63;0.40;;;17.40;59.90;;;;;;5046706;28;20180;-64
2020/12/24 10:07:14;;;;;;;1.30;0.52;;;17.40;59.90;;;;;;5046589;28;20203;-65
2020/12/24 10:09:40;;;;;;;1.60;0.50;;;17.40;59.90;;;;;;5046439;28;20229;-64
2020/12/24 10:12:05;;;;;;;0.63;0.60;;;17.40;60.00;;;;;;5046537;28;20171;-65
2020/12/24 10:14:31;;;;;;;1.75;0.50;;;17.40;60.10;;;;;;5047224;28;20186;-64
2020/12/24 10:16:56;;;;;;;0.40;0.40;;;17.50;60.30;;;;;;5056727;28;20179;-64
2020/12/24 10:19:22;;;;;;;3.38;0.52;;;17.50;60.30;;;;;;5054336;28;20181;-65
2020/12/24 10:21:47;;;;;;;0.73;0.60;;;17.50;60.20;;;;;;5056463;28;20556;-65
2020/12/24 10:24:13;;;;;;;1.85;0.47;;;17.50;60.20;;;;;;5055836;28;20194;-64
2020/12/24 10:26:39;;;;;;;1.23;0.60;;;17.60;60.30;;;;;;5036656;28;20203;-64
2020/12/24 10:29:04;;;;;;;1.02;0.50;;;17.50;60.20;;;;;;5056575;28;20194;-64
2020/12/24 10:31:30;;;;;;;1.10;0.47;;;17.50;60.20;;;;;;5055233;28;20668;-64
2020/12/24 10:33:56;;;;;;;1.00;0.52;;;17.50;60.10;;;;;;5056364;28;20183;-64
2020/12/24 10:36:22;;;;;;;0.63;0.40;;;17.50;60.10;;;;;;5054745;28;20217;-63
2020/12/24 10:38:48;;;;;;;1.42;0.52;;;17.50;60.10;;;;;;5055917;28;20537;-64
2020/12/24 10:41:14;;;;;;;0.30;0.30;;;17.50;60.40;;;;;;5036634;28;20189;-64
2020/12/24 10:43:39;;;;;;;0.93;0.50;;;17.60;60.40;;;;;;5058108;28;20186;-64
2020/12/24 10:46:05;;;;;;;0.57;0.38;;;17.60;60.30;;;;;;5054555;28;20182;-65
2020/12/24 10:48:30;;;;;;;1.58;0.60;;;17.60;60.30;;;;;;5051372;28;20289;-66
2020/12/24 10:50:56;;;;;;;0.95;0.40;;;17.60;60.30;;;;;;5045900;28;20923;-66
2020/12/24 10:53:22;;;;;;;3.38;1.13;;;17.60;60.50;;;;;;5046190;28;20577;-64
2020/12/24 10:55:47;;;;;;;1.00;0.38;;;17.60;60.20;;;;;;5045631;28;20358;-65
2020/12/24 10:58:13;;;;;;;1.48;0.70;;;17.50;60.30;;;;;;5045567;28;20903;-66
2020/12/24 11:00:39;;;;;;;1.20;0.50;;;17.50;60.30;;;;;;5045477;28;20175;-65
2020/12/24 11:03:04;;;;;;;1.88;0.50;;;17.50;60.30;;;;;;5045165;28;20237;-64
2020/12/24 11:05:30;;;;;;;1.30;0.60;;;17.50;60.30;;;;;;5045232;28;20190;-66
2020/12/24 11:07:56;;;;;;;3.28;0.65;;;17.50;60.50;;;;;;5045431;28;20203;-65
2020/12/24 11:10:21;;;;;;;1.83;0.75;;;17.50;60.50;;;;;;5045109;28;20725;-67
2020/12/24 11:12:47;;;;;;;1.73;0.50;;;17.60;60.50;;;;;;5052456;28;20334;-62
2020/12/24 11:15:12;;;;;;;0.75;0.63;;;17.60;60.40;;;;;;5065277;28;20232;-66
2020/12/24 11:17:38;;;;;;;2.13;0.57;;;17.60;60.40;;;;;;5065020;28;20262;-65
2020/12/24 11:20:04;;;;;;;0.68;0.40;;;17.60;60.40;;;;;;5065199;28;20183;-65
2020/12/24 11:22:30;;;;;;;0.77;0.52;;;17.60;60.40;;;;;;5064903;28;20183;-63
2020/12/24 11:24:57;;;;;;;1.15;0.52;;;17.50;60.40;;;;;;5064727;28;20261;-64
2020/12/24 11:27:22;;;;;;;1.75;0.50;;;17.60;60.40;;;;;;5064800;28;20259;-65
2020/12/24 11:29:48;;;;;;;1.35;0.50;;;17.50;60.40;;;;;;5065145;28;20258;-63
2020/12/24 11:32:13;;;;;;;0.85;0.40;;;17.50;60.40;;;;;;5064867;28;20208;-64
2020/12/24 11:34:39;;;;;;;1.55;0.57;;;17.50;60.40;;;;;;5064709;28;20181;-63
2020/12/24 11:37:04;;;;;;;1.30;0.60;;;17.50;60.40;;;;;;5064570;28;20182;-64
2020/12/24 11:39:30;;;;;;;1.17;0.65;;;17.50;60.50;;;;;;5064594;28;20174;-63
2020/12/24 11:41:55;;;;;;;0.93;0.52;;;17.60;60.40;;;;;;5064494;28;20175;-65
2020/12/24 11:44:21;;;;;;;0.75;0.40;;;17.50;60.40;;;;;;5064866;28;20680;-64
2020/12/24 11:46:46;;;;;;;2.60;0.80;;;17.50;60.30;;;;;;5064773;28;20232;-64
2020/12/24 11:49:12;;;;;;;1.08;0.57;;;17.60;60.30;;;;;;5064692;28;20228;-62
2020/12/24 11:51:38;;;;;;;0.50;0.50;;;17.60;60.40;;;;;;5064732;28;20538;-67
2020/12/24 11:54:03;;;;;;;1.15;0.70;;;17.50;60.30;;;;;;5064533;28;20171;-67
2020/12/24 11:56:29;;;;;;;0.93;0.50;;;17.50;60.30;;;;;;5064342;28;20174;-63
2020/12/24 11:58:54;;;;;;;1.80;0.70;;;17.50;60.60;;;;;;5064769;28;20177;-66
2020/12/24 12:01:20;;;;;;;3.85;0.95;;;17.50;60.50;;;;;;5046805;28;20174;-64
2020/12/24 12:03:46;;;;;;;3.90;0.50;;;17.70;60.50;;;;;;5064629;28;20170;-67
2020/12/24 12:06:12;;;;;;;1.60;0.75;;;17.80;60.30;;;;;;5064749;28;20236;-65
2020/12/24 12:08:37;;;;;;;2.20;0.57;;;18.00;60.10;;;;;;5064286;28;20231;-67
2020/12/24 12:11:03;;;;;;;0.85;0.50;;;18.30;59.70;;;;;;5064199;28;20214;-65
2020/12/24 12:13:29;;;;;;;0.75;0.70;;;18.70;59.10;;;;;;5046583;28;20183;-66
2020/12/24 12:15:55;;;;;;;1.45;0.63;;;19.00;58.20;;;;;;5064009;28;20259;-66
2020/12/24 12:18:21;;;;;;;1.23;0.60;;;19.30;57.60;;;;;;5064358;28;20213;-67
2020/12/24 12:20:46;;;;;;;2.90;0.43;;;19.60;57.30;;;;;;5064868;28;20182;-65
2020/12/24 12:23:12;;;;;;;0.75;0.50;;;19.70;57.50;;;;;;5064367;28;20175;-65
2020/12/24 12:25:37;;;;;;;0.85;0.40;;;19.80;56.70;;;;;;5063930;28;20267;-66
2020/12/24 12:28:03;;;;;;;0.88;0.63;;;19.90;56.40;;;;;;5063935;28;20218;-66
2020/12/24 12:30:28;;;;;;;1.38;0.57;;;20.00;56.30;;;;;;5063727;28;21095;-65
2020/12/24 12:32:54;;;;;;;0.90;0.47;;;20.10;56.30;;;;;;5046255;28;20174;-65
2020/12/24 12:35:20;;;;;;;0.93;0.50;;;20.10;56.10;;;;;;5064170;28;20316;-63
2020/12/24 12:37:45;;;;;;;1.60;0.60;;;20.10;56.10;;;;;;5064044;28;20182;-64
2020/12/24 12:40:11;;;;;;;1.85;0.60;;;20.20;56.20;;;;;;5063853;28;20186;-65
2020/12/24 12:42:36;;;;;;;1.45;0.95;;;20.10;56.40;;;;;;5045892;28;20175;-68
2020/12/24 12:45:03;;;;;;;4.57;0.77;;;20.10;56.50;;;;;;5063851;28;20174;-65
2020/12/24 12:47:28;;;;;;;3.40;0.60;;;20.10;56.50;;;;;;5056885;28;21102;-66